sensor_id;sensor_type;location;lat;lon;timestamp;P1;durP1;ratioP1;P2;durP2;ratioP2
1829;SDS011;914;48.118;11.600;2022-12-08T00:00:51;14.60;;;10.23;;
1829;SDS011;914;48.118;11.600;2022-12-08T00:03:17;16.90;;;11.43;;
1829;SDS011;914;48.118;11.600;2022-12-08T00:05:47;14.30;;;10.83;;
1829;SDS011;914;48.118;11.600;2022-12-08T00:08:32;15.67;;;10.50;;
1829;SDS011;914;48.118;11.600;2022-12-08T00:11:18;14.37;;;10.77;;
1829;SDS011;914;48.118;11.600;2022-12-08T00:13:44;14.30;;;10.30;;
1829;SDS011;914;48.118;11.600;2022-12-08T00:16:10;14.93;;;10.63;;
1829;SDS011;914;48.118;11.600;2022-12-08T00:18:36;14.93;;;10.80;;
1829;SDS011;914;48.118;11.600;2022-12-08T00:21:06;14.63;;;10.63;;
1829;SDS011;914;48.118;11.600;2022-12-08T00:23:31;13.90;;;10.57;;
1829;SDS011;914;48.118;11.600;2022-12-08T00:26:00;13.50;;;9.60;;
1829;SDS011;914;48.118;11.600;2022-12-08T00:28:30;12.00;;;9.30;;
1829;SDS011;914;48.118;11.600;2022-12-08T00:31:06;13.63;;;10.50;;
1829;SDS011;914;48.118;11.600;2022-12-08T00:33:36;12.70;;;9.87;;
1829;SDS011;914;48.118;11.600;2022-12-08T00:36:09;14.97;;;10.33;;
1829;SDS011;914;48.118;11.600;2022-12-08T00:38:39;14.43;;;10.73;;
1829;SDS011;914;48.118;11.600;2022-12-08T00:41:06;16.33;;;11.13;;
1829;SDS011;914;48.118;11.600;2022-12-08T00:43:36;13.77;;;10.17;;
1829;SDS011;914;48.118;11.600;2022-12-08T00:46:02;14.53;;;10.73;;
1829;SDS011;914;48.118;11.600;2022-12-08T00:48:31;13.93;;;10.30;;
1829;SDS011;914;48.118;11.600;2022-12-08T00:50:59;14.47;;;10.83;;
1829;SDS011;914;48.118;11.600;2022-12-08T00:53:25;15.83;;;11.20;;
1829;SDS011;914;48.118;11.600;2022-12-08T00:55:51;13.73;;;11.13;;
1829;SDS011;914;48.118;11.600;2022-12-08T00:58:20;15.57;;;11.27;;
1829;SDS011;914;48.118;11.600;2022-12-08T01:00:45;13.17;;;10.77;;
1829;SDS011;914;48.118;11.600;2022-12-08T01:03:14;15.43;;;11.20;;
1829;SDS011;914;48.118;11.600;2022-12-08T01:05:40;15.47;;;11.47;;
1829;SDS011;914;48.118;11.600;2022-12-08T01:08:10;15.13;;;11.33;;
1829;SDS011;914;48.118;11.600;2022-12-08T01:10:36;15.10;;;11.30;;
1829;SDS011;914;48.118;11.600;2022-12-08T01:13:02;17.57;;;11.90;;
1829;SDS011;914;48.118;11.600;2022-12-08T01:15:31;14.87;;;11.67;;
1829;SDS011;914;48.118;11.600;2022-12-08T01:17:56;17.83;;;12.33;;
1829;SDS011;914;48.118;11.600;2022-12-08T01:20:22;15.67;;;10.87;;
1829;SDS011;914;48.118;11.600;2022-12-08T01:22:51;16.37;;;11.70;;
1829;SDS011;914;48.118;11.600;2022-12-08T01:25:20;15.30;;;11.40;;
1829;SDS011;914;48.118;11.600;2022-12-08T01:27:50;16.47;;;10.77;;
1829;SDS011;914;48.118;11.600;2022-12-08T01:30:19;14.63;;;10.70;;
1829;SDS011;914;48.118;11.600;2022-12-08T01:32:45;15.63;;;11.47;;
1829;SDS011;914;48.118;11.600;2022-12-08T01:35:12;14.40;;;11.27;;
1829;SDS011;914;48.118;11.600;2022-12-08T01:37:38;15.40;;;11.27;;
1829;SDS011;914;48.118;11.600;2022-12-08T01:40:04;16.13;;;11.70;;
1829;SDS011;914;48.118;11.600;2022-12-08T01:42:33;16.97;;;11.57;;
1829;SDS011;914;48.118;11.600;2022-12-08T01:45:05;14.30;;;10.67;;
1829;SDS011;914;48.118;11.600;2022-12-08T01:47:35;15.33;;;11.33;;
1829;SDS011;914;48.118;11.600;2022-12-08T01:50:07;14.40;;;11.03;;
1829;SDS011;914;48.118;11.600;2022-12-08T01:52:42;16.27;;;11.63;;
1829;SDS011;914;48.118;11.600;2022-12-08T01:55:22;15.67;;;11.07;;
1829;SDS011;914;48.118;11.600;2022-12-08T01:57:57;14.87;;;11.10;;
1829;SDS011;914;48.118;11.600;2022-12-08T02:00:30;15.77;;;11.60;;
1829;SDS011;914;48.118;11.600;2022-12-08T02:03:03;16.97;;;12.37;;
1829;SDS011;914;48.118;11.600;2022-12-08T02:05:34;16.50;;;11.67;;
1829;SDS011;914;48.118;11.600;2022-12-08T02:08:03;16.47;;;12.17;;
1829;SDS011;914;48.118;11.600;2022-12-08T02:10:32;15.23;;;11.27;;
1829;SDS011;914;48.118;11.600;2022-12-08T02:13:04;14.80;;;10.97;;
1829;SDS011;914;48.118;11.600;2022-12-08T02:15:56;15.77;;;11.40;;
1829;SDS011;914;48.118;11.600;2022-12-08T02:24:23;15.63;;;11.27;;
1829;SDS011;914;48.118;11.600;2022-12-08T02:32:54;15.07;;;10.53;;
1829;SDS011;914;48.118;11.600;2022-12-08T02:35:44;16.47;;;11.87;;
1829;SDS011;914;48.118;11.600;2022-12-08T02:38:55;15.93;;;11.63;;
1829;SDS011;914;48.118;11.600;2022-12-08T02:44:38;17.87;;;11.97;;
1829;SDS011;914;48.118;11.600;2022-12-08T02:47:20;17.63;;;12.43;;
1829;SDS011;914;48.118;11.600;2022-12-08T02:49:51;18.73;;;12.67;;
1829;SDS011;914;48.118;11.600;2022-12-08T02:54:49;18.43;;;12.70;;
1829;SDS011;914;48.118;11.600;2022-12-08T03:00:26;17.50;;;12.60;;
1829;SDS011;914;48.118;11.600;2022-12-08T03:12:02;20.70;;;13.03;;
1829;SDS011;914;48.118;11.600;2022-12-08T03:14:39;19.30;;;13.03;;
1829;SDS011;914;48.118;11.600;2022-12-08T03:17:10;18.30;;;12.53;;
1829;SDS011;914;48.118;11.600;2022-12-08T03:19:41;17.90;;;12.47;;
1829;SDS011;914;48.118;11.600;2022-12-08T03:22:08;16.43;;;11.97;;
1829;SDS011;914;48.118;11.600;2022-12-08T03:24:38;17.90;;;12.37;;
1829;SDS011;914;48.118;11.600;2022-12-08T03:27:11;18.73;;;12.47;;
1829;SDS011;914;48.118;11.600;2022-12-08T03:29:47;20.13;;;12.73;;
1829;SDS011;914;48.118;11.600;2022-12-08T03:34:57;16.17;;;11.93;;
1829;SDS011;914;48.118;11.600;2022-12-08T03:37:27;15.70;;;11.37;;
1829;SDS011;914;48.118;11.600;2022-12-08T03:39:52;17.30;;;12.43;;
1829;SDS011;914;48.118;11.600;2022-12-08T03:42:21;15.93;;;11.23;;
1829;SDS011;914;48.118;11.600;2022-12-08T03:44:49;15.33;;;11.50;;
1829;SDS011;914;48.118;11.600;2022-12-08T03:47:17;18.77;;;11.67;;
1829;SDS011;914;48.118;11.600;2022-12-08T03:49:43;15.77;;;11.40;;
1829;SDS011;914;48.118;11.600;2022-12-08T03:52:11;19.30;;;12.57;;
1829;SDS011;914;48.118;11.600;2022-12-08T03:54:37;16.20;;;11.77;;
1829;SDS011;914;48.118;11.600;2022-12-08T03:57:03;17.20;;;11.97;;
1829;SDS011;914;48.118;11.600;2022-12-08T03:59:31;17.43;;;11.83;;
1829;SDS011;914;48.118;11.600;2022-12-08T04:01:57;16.97;;;11.90;;
1829;SDS011;914;48.118;11.600;2022-12-08T04:04:23;16.53;;;11.90;;
1829;SDS011;914;48.118;11.600;2022-12-08T04:06:48;15.83;;;11.40;;
1829;SDS011;914;48.118;11.600;2022-12-08T04:09:15;17.10;;;12.03;;
1829;SDS011;914;48.118;11.600;2022-12-08T04:11:41;16.60;;;11.83;;
1829;SDS011;914;48.118;11.600;2022-12-08T04:14:06;16.63;;;11.80;;
1829;SDS011;914;48.118;11.600;2022-12-08T04:16:32;16.60;;;11.00;;
1829;SDS011;914;48.118;11.600;2022-12-08T04:18:58;17.23;;;12.00;;
1829;SDS011;914;48.118;11.600;2022-12-08T04:21:26;15.93;;;11.37;;
1829;SDS011;914;48.118;11.600;2022-12-08T04:23:52;16.70;;;11.57;;
1829;SDS011;914;48.118;11.600;2022-12-08T04:26:18;14.70;;;11.17;;
1829;SDS011;914;48.118;11.600;2022-12-08T04:28:43;16.17;;;11.40;;
1829;SDS011;914;48.118;11.600;2022-12-08T04:31:13;16.30;;;12.03;;
1829;SDS011;914;48.118;11.600;2022-12-08T04:33:42;17.90;;;12.83;;
1829;SDS011;914;48.118;11.600;2022-12-08T04:36:11;15.20;;;10.43;;
1829;SDS011;914;48.118;11.600;2022-12-08T04:38:37;16.37;;;12.20;;
1829;SDS011;914;48.118;11.600;2022-12-08T04:41:05;17.30;;;11.07;;
1829;SDS011;914;48.118;11.600;2022-12-08T04:43:31;17.57;;;11.43;;
1829;SDS011;914;48.118;11.600;2022-12-08T04:45:57;15.63;;;11.47;;
1829;SDS011;914;48.118;11.600;2022-12-08T04:48:22;17.13;;;12.30;;
1829;SDS011;914;48.118;11.600;2022-12-08T04:50:48;15.03;;;11.10;;
1829;SDS011;914;48.118;11.600;2022-12-08T04:53:20;15.03;;;11.10;;
1829;SDS011;914;48.118;11.600;2022-12-08T04:55:50;15.27;;;11.57;;
1829;SDS011;914;48.118;11.600;2022-12-08T04:58:19;15.97;;;11.37;;
1829;SDS011;914;48.118;11.600;2022-12-08T05:00:45;16.47;;;11.87;;
1829;SDS011;914;48.118;11.600;2022-12-08T05:03:18;15.93;;;12.03;;
1829;SDS011;914;48.118;11.600;2022-12-08T05:05:49;16.73;;;12.00;;
1829;SDS011;914;48.118;11.600;2022-12-08T05:08:18;15.33;;;11.70;;
1829;SDS011;914;48.118;11.600;2022-12-08T05:10:43;15.80;;;11.37;;
1829;SDS011;914;48.118;11.600;2022-12-08T05:13:09;17.47;;;11.83;;
1829;SDS011;914;48.118;11.600;2022-12-08T05:15:37;13.80;;;10.60;;
1829;SDS011;914;48.118;11.600;2022-12-08T05:18:03;17.33;;;11.90;;
1829;SDS011;914;48.118;11.600;2022-12-08T05:20:30;17.23;;;11.03;;
1829;SDS011;914;48.118;11.600;2022-12-08T05:22:55;14.57;;;10.93;;
1829;SDS011;914;48.118;11.600;2022-12-08T05:25:21;14.47;;;10.63;;
1829;SDS011;914;48.118;11.600;2022-12-08T05:27:47;15.13;;;11.00;;
1829;SDS011;914;48.118;11.600;2022-12-08T05:30:16;14.40;;;10.63;;
1829;SDS011;914;48.118;11.600;2022-12-08T05:32:41;14.60;;;10.80;;
1829;SDS011;914;48.118;11.600;2022-12-08T05:35:07;14.97;;;11.27;;
1829;SDS011;914;48.118;11.600;2022-12-08T05:37:33;12.83;;;10.47;;
1829;SDS011;914;48.118;11.600;2022-12-08T05:40:01;14.50;;;10.97;;
1829;SDS011;914;48.118;11.600;2022-12-08T05:42:29;15.60;;;10.63;;
1829;SDS011;914;48.118;11.600;2022-12-08T05:44:55;14.07;;;10.77;;
1829;SDS011;914;48.118;11.600;2022-12-08T05:47:24;13.80;;;10.70;;
1829;SDS011;914;48.118;11.600;2022-12-08T05:49:53;13.30;;;10.40;;
1829;SDS011;914;48.118;11.600;2022-12-08T05:52:18;14.40;;;10.77;;
1829;SDS011;914;48.118;11.600;2022-12-08T05:54:44;15.10;;;11.30;;
1829;SDS011;914;48.118;11.600;2022-12-08T05:57:12;16.17;;;11.07;;
1829;SDS011;914;48.118;11.600;2022-12-08T05:59:38;16.20;;;11.17;;
1829;SDS011;914;48.118;11.600;2022-12-08T06:02:07;16.63;;;11.73;;
1829;SDS011;914;48.118;11.600;2022-12-08T06:04:33;15.57;;;11.40;;
1829;SDS011;914;48.118;11.600;2022-12-08T06:06:59;15.60;;;11.90;;
1829;SDS011;914;48.118;11.600;2022-12-08T06:09:27;16.50;;;11.83;;
1829;SDS011;914;48.118;11.600;2022-12-08T06:11:57;16.90;;;12.47;;
1829;SDS011;914;48.118;11.600;2022-12-08T06:14:22;16.00;;;11.53;;
1829;SDS011;914;48.118;11.600;2022-12-08T06:16:51;18.53;;;11.73;;
1829;SDS011;914;48.118;11.600;2022-12-08T06:19:17;15.77;;;11.33;;
1829;SDS011;914;48.118;11.600;2022-12-08T06:21:42;16.07;;;11.80;;
1829;SDS011;914;48.118;11.600;2022-12-08T06:24:11;18.00;;;11.97;;
1829;SDS011;914;48.118;11.600;2022-12-08T06:26:37;16.17;;;11.47;;
1829;SDS011;914;48.118;11.600;2022-12-08T06:29:10;16.90;;;11.80;;
1829;SDS011;914;48.118;11.600;2022-12-08T06:31:35;18.57;;;11.87;;
1829;SDS011;914;48.118;11.600;2022-12-08T06:34:01;17.67;;;12.27;;
1829;SDS011;914;48.118;11.600;2022-12-08T06:36:27;17.83;;;12.80;;
1829;SDS011;914;48.118;11.600;2022-12-08T06:38:53;17.80;;;12.40;;
1829;SDS011;914;48.118;11.600;2022-12-08T06:41:19;16.13;;;11.57;;
1829;SDS011;914;48.118;11.600;2022-12-08T06:43:45;19.93;;;12.33;;
1829;SDS011;914;48.118;11.600;2022-12-08T06:46:12;18.37;;;12.93;;
1829;SDS011;914;48.118;11.600;2022-12-08T06:48:39;17.67;;;11.77;;
1829;SDS011;914;48.118;11.600;2022-12-08T06:51:26;17.10;;;12.10;;
1829;SDS011;914;48.118;11.600;2022-12-08T06:53:55;18.53;;;12.43;;
1829;SDS011;914;48.118;11.600;2022-12-08T06:56:24;18.23;;;12.67;;
1829;SDS011;914;48.118;11.600;2022-12-08T06:58:58;16.80;;;11.83;;
1829;SDS011;914;48.118;11.600;2022-12-08T07:01:24;18.90;;;11.43;;
1829;SDS011;914;48.118;11.600;2022-12-08T07:03:49;17.70;;;12.23;;
1829;SDS011;914;48.118;11.600;2022-12-08T07:06:17;17.30;;;11.83;;
1829;SDS011;914;48.118;11.600;2022-12-08T07:08:45;16.70;;;11.27;;
1829;SDS011;914;48.118;11.600;2022-12-08T07:11:11;15.67;;;11.57;;
1829;SDS011;914;48.118;11.600;2022-12-08T07:13:37;15.27;;;11.17;;
1829;SDS011;914;48.118;11.600;2022-12-08T07:16:04;18.63;;;12.27;;
1829;SDS011;914;48.118;11.600;2022-12-08T07:18:33;18.40;;;12.13;;
1829;SDS011;914;48.118;11.600;2022-12-08T07:21:06;18.57;;;12.00;;
1829;SDS011;914;48.118;11.600;2022-12-08T07:23:34;18.20;;;12.20;;
1829;SDS011;914;48.118;11.600;2022-12-08T07:26:01;18.67;;;13.13;;
1829;SDS011;914;48.118;11.600;2022-12-08T07:28:31;15.20;;;11.43;;
1829;SDS011;914;48.118;11.600;2022-12-08T07:30:58;18.67;;;12.00;;
1829;SDS011;914;48.118;11.600;2022-12-08T07:33:24;15.63;;;11.60;;
1829;SDS011;914;48.118;11.600;2022-12-08T07:35:55;18.63;;;12.37;;
1829;SDS011;914;48.118;11.600;2022-12-08T07:38:22;17.80;;;12.57;;
1829;SDS011;914;48.118;11.600;2022-12-08T07:40:48;17.53;;;12.03;;
1829;SDS011;914;48.118;11.600;2022-12-08T07:43:14;17.73;;;11.67;;
1829;SDS011;914;48.118;11.600;2022-12-08T07:45:40;15.27;;;11.30;;
1829;SDS011;914;48.118;11.600;2022-12-08T07:48:05;14.73;;;11.30;;
1829;SDS011;914;48.118;11.600;2022-12-08T07:50:31;16.07;;;11.00;;
1829;SDS011;914;48.118;11.600;2022-12-08T07:52:57;14.47;;;11.10;;
1829;SDS011;914;48.118;11.600;2022-12-08T07:55:23;34.10;;;17.90;;
1829;SDS011;914;48.118;11.600;2022-12-08T07:57:50;32.27;;;19.60;;
1829;SDS011;914;48.118;11.600;2022-12-08T08:00:16;16.00;;;11.47;;
1829;SDS011;914;48.118;11.600;2022-12-08T08:02:43;16.33;;;10.97;;
1829;SDS011;914;48.118;11.600;2022-12-08T08:05:09;13.40;;;10.33;;
1829;SDS011;914;48.118;11.600;2022-12-08T08:07:38;13.20;;;9.70;;
1829;SDS011;914;48.118;11.600;2022-12-08T08:10:08;14.67;;;10.03;;
1829;SDS011;914;48.118;11.600;2022-12-08T08:12:35;11.97;;;9.33;;
1829;SDS011;914;48.118;11.600;2022-12-08T08:15:02;10.87;;;8.70;;
1829;SDS011;914;48.118;11.600;2022-12-08T08:17:32;12.10;;;8.97;;
1829;SDS011;914;48.118;11.600;2022-12-08T08:19:58;12.70;;;9.43;;
1829;SDS011;914;48.118;11.600;2022-12-08T08:22:25;12.33;;;9.70;;
1829;SDS011;914;48.118;11.600;2022-12-08T08:24:51;14.67;;;9.40;;
1829;SDS011;914;48.118;11.600;2022-12-08T08:27:17;12.43;;;9.30;;
1829;SDS011;914;48.118;11.600;2022-12-08T08:29:42;12.60;;;9.30;;
1829;SDS011;914;48.118;11.600;2022-12-08T08:32:08;11.20;;;8.83;;
1829;SDS011;914;48.118;11.600;2022-12-08T08:34:34;11.87;;;9.20;;
1829;SDS011;914;48.118;11.600;2022-12-08T08:36:59;10.30;;;8.33;;
1829;SDS011;914;48.118;11.600;2022-12-08T08:39:25;10.13;;;7.90;;
1829;SDS011;914;48.118;11.600;2022-12-08T08:41:51;10.53;;;8.30;;
1829;SDS011;914;48.118;11.600;2022-12-08T08:44:17;10.77;;;8.23;;
1829;SDS011;914;48.118;11.600;2022-12-08T08:46:43;11.80;;;8.50;;
1829;SDS011;914;48.118;11.600;2022-12-08T08:49:08;13.77;;;8.47;;
1829;SDS011;914;48.118;11.600;2022-12-08T08:51:34;11.00;;;8.50;;
1829;SDS011;914;48.118;11.600;2022-12-08T08:54:00;9.93;;;8.10;;
1829;SDS011;914;48.118;11.600;2022-12-08T08:56:25;9.57;;;8.07;;
1829;SDS011;914;48.118;11.600;2022-12-08T08:58:51;11.70;;;8.47;;
1829;SDS011;914;48.118;11.600;2022-12-08T09:01:19;10.40;;;8.40;;
1829;SDS011;914;48.118;11.600;2022-12-08T09:03:46;13.37;;;9.00;;
1829;SDS011;914;48.118;11.600;2022-12-08T09:06:13;11.90;;;9.07;;
1829;SDS011;914;48.118;11.600;2022-12-08T09:08:40;10.93;;;8.67;;
1829;SDS011;914;48.118;11.600;2022-12-08T09:11:06;10.80;;;8.73;;
1829;SDS011;914;48.118;11.600;2022-12-08T09:13:32;11.27;;;8.67;;
1829;SDS011;914;48.118;11.600;2022-12-08T09:16:02;11.97;;;9.07;;
1829;SDS011;914;48.118;11.600;2022-12-08T09:18:29;11.40;;;8.47;;
1829;SDS011;914;48.118;11.600;2022-12-08T09:20:55;12.63;;;8.83;;
1829;SDS011;914;48.118;11.600;2022-12-08T09:23:21;10.80;;;8.47;;
1829;SDS011;914;48.118;11.600;2022-12-08T09:25:46;10.63;;;8.20;;
1829;SDS011;914;48.118;11.600;2022-12-08T09:28:12;11.67;;;8.93;;
1829;SDS011;914;48.118;11.600;2022-12-08T09:30:39;13.67;;;8.77;;
1829;SDS011;914;48.118;11.600;2022-12-08T09:33:05;15.47;;;9.03;;
1829;SDS011;914;48.118;11.600;2022-12-08T09:35:31;10.07;;;8.13;;
1829;SDS011;914;48.118;11.600;2022-12-08T09:37:57;10.80;;;8.70;;
1829;SDS011;914;48.118;11.600;2022-12-08T09:40:23;9.97;;;8.47;;
1829;SDS011;914;48.118;11.600;2022-12-08T09:42:53;10.60;;;8.57;;
1829;SDS011;914;48.118;11.600;2022-12-08T09:45:29;11.87;;;8.50;;
1829;SDS011;914;48.118;11.600;2022-12-08T09:48:04;10.43;;;8.43;;
1829;SDS011;914;48.118;11.600;2022-12-08T09:50:49;11.07;;;8.40;;
1829;SDS011;914;48.118;11.600;2022-12-08T09:55:58;12.83;;;9.07;;
1829;SDS011;914;48.118;11.600;2022-12-08T10:01:09;12.47;;;9.17;;
1829;SDS011;914;48.118;11.600;2022-12-08T10:03:36;14.23;;;9.57;;
1829;SDS011;914;48.118;11.600;2022-12-08T10:11:31;11.07;;;9.00;;
1829;SDS011;914;48.118;11.600;2022-12-08T10:14:13;10.33;;;8.47;;
1829;SDS011;914;48.118;11.600;2022-12-08T10:16:43;10.50;;;8.20;;
1829;SDS011;914;48.118;11.600;2022-12-08T10:19:20;10.00;;;7.93;;
1829;SDS011;914;48.118;11.600;2022-12-08T10:21:48;9.87;;;7.97;;
1829;SDS011;914;48.118;11.600;2022-12-08T10:24:23;9.83;;;8.07;;
1829;SDS011;914;48.118;11.600;2022-12-08T10:27:07;8.67;;;7.30;;
1829;SDS011;914;48.118;11.600;2022-12-08T10:29:35;11.80;;;8.10;;
1829;SDS011;914;48.118;11.600;2022-12-08T10:32:01;9.40;;;8.40;;
1829;SDS011;914;48.118;11.600;2022-12-08T10:35:00;10.87;;;8.57;;
1829;SDS011;914;48.118;11.600;2022-12-08T10:37:31;9.27;;;8.27;;
1829;SDS011;914;48.118;11.600;2022-12-08T10:39:58;10.53;;;8.63;;
1829;SDS011;914;48.118;11.600;2022-12-08T10:42:31;9.87;;;8.03;;
1829;SDS011;914;48.118;11.600;2022-12-08T10:45:10;8.83;;;7.90;;
1829;SDS011;914;48.118;11.600;2022-12-08T10:48:00;10.00;;;7.50;;
1829;SDS011;914;48.118;11.600;2022-12-08T10:50:41;8.60;;;7.20;;
1829;SDS011;914;48.118;11.600;2022-12-08T11:01:36;10.17;;;8.80;;
1829;SDS011;914;48.118;11.600;2022-12-08T11:09:36;15.57;;;11.63;;
1829;SDS011;914;48.118;11.600;2022-12-08T11:14:27;10.50;;;8.53;;
1829;SDS011;914;48.118;11.600;2022-12-08T11:17:35;16.30;;;11.70;;
1829;SDS011;914;48.118;11.600;2022-12-08T11:19:57;19.97;;;10.73;;
1829;SDS011;914;48.118;11.600;2022-12-08T11:23:16;16.47;;;10.93;;
1829;SDS011;914;48.118;11.600;2022-12-08T11:27:46;17.47;;;12.17;;
1829;SDS011;914;48.118;11.600;2022-12-08T11:30:15;20.23;;;12.37;;
1829;SDS011;914;48.118;11.600;2022-12-08T11:32:44;17.07;;;12.97;;
1829;SDS011;914;48.118;11.600;2022-12-08T11:35:22;17.60;;;12.60;;
1829;SDS011;914;48.118;11.600;2022-12-08T11:38:02;19.30;;;12.67;;
1829;SDS011;914;48.118;11.600;2022-12-08T11:40:34;19.57;;;13.17;;
1829;SDS011;914;48.118;11.600;2022-12-08T11:43:16;20.80;;;13.17;;
1829;SDS011;914;48.118;11.600;2022-12-08T11:45:57;18.20;;;12.73;;
1829;SDS011;914;48.118;11.600;2022-12-08T11:48:35;16.07;;;12.17;;
1829;SDS011;914;48.118;11.600;2022-12-08T11:51:16;15.97;;;11.80;;
1829;SDS011;914;48.118;11.600;2022-12-08T11:54:03;20.97;;;12.70;;
1829;SDS011;914;48.118;11.600;2022-12-08T11:56:52;17.20;;;12.67;;
1829;SDS011;914;48.118;11.600;2022-12-08T11:59:36;17.97;;;12.60;;
1829;SDS011;914;48.118;11.600;2022-12-08T12:02:06;16.83;;;11.10;;
1829;SDS011;914;48.118;11.600;2022-12-08T12:12:29;17.00;;;12.40;;
1829;SDS011;914;48.118;11.600;2022-12-08T12:18:17;15.90;;;11.10;;
1829;SDS011;914;48.118;11.600;2022-12-08T12:21:11;22.20;;;12.63;;
1829;SDS011;914;48.118;11.600;2022-12-08T12:23:58;15.90;;;11.93;;
1829;SDS011;914;48.118;11.600;2022-12-08T12:26:33;15.87;;;11.70;;
1829;SDS011;914;48.118;11.600;2022-12-08T12:29:18;19.40;;;12.70;;
1829;SDS011;914;48.118;11.600;2022-12-08T12:31:51;15.13;;;11.20;;
1829;SDS011;914;48.118;11.600;2022-12-08T12:34:20;18.13;;;12.57;;
1829;SDS011;914;48.118;11.600;2022-12-08T12:39:47;22.03;;;12.17;;
1829;SDS011;914;48.118;11.600;2022-12-08T12:47:51;18.50;;;11.80;;
1829;SDS011;914;48.118;11.600;2022-12-08T12:58:20;17.83;;;12.10;;
1829;SDS011;914;48.118;11.600;2022-12-08T13:00:46;19.43;;;12.10;;
1829;SDS011;914;48.118;11.600;2022-12-08T13:03:13;17.63;;;11.90;;
1829;SDS011;914;48.118;11.600;2022-12-08T13:05:48;16.67;;;11.70;;
1829;SDS011;914;48.118;11.600;2022-12-08T13:08:20;16.50;;;11.13;;
1829;SDS011;914;48.118;11.600;2022-12-08T13:13:59;14.77;;;10.73;;
1829;SDS011;914;48.118;11.600;2022-12-08T13:16:30;17.30;;;11.33;;
1829;SDS011;914;48.118;11.600;2022-12-08T13:18:58;18.53;;;12.07;;
1829;SDS011;914;48.118;11.600;2022-12-08T13:21:33;22.53;;;13.07;;
1829;SDS011;914;48.118;11.600;2022-12-08T13:24:12;16.43;;;11.17;;
1829;SDS011;914;48.118;11.600;2022-12-08T13:27:27;23.40;;;16.03;;
1829;SDS011;914;48.118;11.600;2022-12-08T13:29:36;16.30;;;10.60;;
1829;SDS011;914;48.118;11.600;2022-12-08T13:32:51;17.43;;;11.70;;
1829;SDS011;914;48.118;11.600;2022-12-08T13:35:26;15.30;;;11.27;;
1829;SDS011;914;48.118;11.600;2022-12-08T13:37:52;18.23;;;12.37;;
1829;SDS011;914;48.118;11.600;2022-12-08T13:40:21;18.13;;;11.67;;
1829;SDS011;914;48.118;11.600;2022-12-08T13:45:30;17.07;;;12.27;;
1829;SDS011;914;48.118;11.600;2022-12-08T13:47:59;18.23;;;11.50;;
1829;SDS011;914;48.118;11.600;2022-12-08T13:50:52;18.93;;;12.20;;
1829;SDS011;914;48.118;11.600;2022-12-08T13:53:29;14.67;;;11.57;;
1829;SDS011;914;48.118;11.600;2022-12-08T13:56:02;18.63;;;12.33;;
1829;SDS011;914;48.118;11.600;2022-12-08T13:58:33;16.57;;;12.27;;
1829;SDS011;914;48.118;11.600;2022-12-08T14:01:11;19.43;;;12.87;;
1829;SDS011;914;48.118;11.600;2022-12-08T14:03:43;24.50;;;12.90;;
1829;SDS011;914;48.118;11.600;2022-12-08T14:06:20;18.50;;;13.10;;
1829;SDS011;914;48.118;11.600;2022-12-08T14:08:55;18.77;;;13.00;;
1829;SDS011;914;48.118;11.600;2022-12-08T14:11:25;19.37;;;12.90;;
1829;SDS011;914;48.118;11.600;2022-12-08T14:14:01;22.07;;;12.77;;
1829;SDS011;914;48.118;11.600;2022-12-08T14:16:35;19.50;;;12.67;;
1829;SDS011;914;48.118;11.600;2022-12-08T14:19:26;18.03;;;13.07;;
1829;SDS011;914;48.118;11.600;2022-12-08T14:21:54;16.40;;;12.47;;
1829;SDS011;914;48.118;11.600;2022-12-08T14:24:25;18.77;;;12.67;;
1829;SDS011;914;48.118;11.600;2022-12-08T14:26:53;19.23;;;12.23;;
1829;SDS011;914;48.118;11.600;2022-12-08T14:29:43;21.73;;;12.37;;
1829;SDS011;914;48.118;11.600;2022-12-08T14:34:51;19.07;;;13.03;;
1829;SDS011;914;48.118;11.600;2022-12-08T14:37:23;19.13;;;12.93;;
1829;SDS011;914;48.118;11.600;2022-12-08T14:39:50;21.77;;;13.83;;
1829;SDS011;914;48.118;11.600;2022-12-08T14:42:24;19.03;;;13.53;;
1829;SDS011;914;48.118;11.600;2022-12-08T14:44:55;24.53;;;14.13;;
1829;SDS011;914;48.118;11.600;2022-12-08T14:47:25;19.33;;;13.13;;
1829;SDS011;914;48.118;11.600;2022-12-08T14:49:54;17.40;;;12.83;;
1829;SDS011;914;48.118;11.600;2022-12-08T14:52:19;24.47;;;12.93;;
1829;SDS011;914;48.118;11.600;2022-12-08T14:54:47;20.80;;;13.73;;
1829;SDS011;914;48.118;11.600;2022-12-08T14:57:14;24.23;;;14.33;;
1829;SDS011;914;48.118;11.600;2022-12-08T14:59:40;19.20;;;13.30;;
1829;SDS011;914;48.118;11.600;2022-12-08T15:02:09;19.07;;;13.07;;
1829;SDS011;914;48.118;11.600;2022-12-08T15:04:39;20.97;;;13.27;;
1829;SDS011;914;48.118;11.600;2022-12-08T15:07:12;18.77;;;13.27;;
1829;SDS011;914;48.118;11.600;2022-12-08T15:09:42;19.87;;;13.53;;
1829;SDS011;914;48.118;11.600;2022-12-08T15:14:39;21.77;;;13.10;;
1829;SDS011;914;48.118;11.600;2022-12-08T15:22:52;21.40;;;12.30;;
1829;SDS011;914;48.118;11.600;2022-12-08T15:25:19;18.40;;;12.03;;
1829;SDS011;914;48.118;11.600;2022-12-08T15:27:45;17.67;;;12.03;;
1829;SDS011;914;48.118;11.600;2022-12-08T15:30:14;16.83;;;12.30;;
1829;SDS011;914;48.118;11.600;2022-12-08T15:32:41;19.27;;;12.37;;
1829;SDS011;914;48.118;11.600;2022-12-08T15:35:11;18.03;;;12.57;;
1829;SDS011;914;48.118;11.600;2022-12-08T15:37:38;19.30;;;12.83;;
1829;SDS011;914;48.118;11.600;2022-12-08T15:40:06;16.13;;;11.27;;
1829;SDS011;914;48.118;11.600;2022-12-08T15:42:39;18.67;;;12.73;;
1829;SDS011;914;48.118;11.600;2022-12-08T15:45:05;17.93;;;12.23;;
1829;SDS011;914;48.118;11.600;2022-12-08T15:47:31;20.33;;;12.93;;
1829;SDS011;914;48.118;11.600;2022-12-08T15:49:57;18.77;;;12.13;;
1829;SDS011;914;48.118;11.600;2022-12-08T15:52:23;16.93;;;11.60;;
1829;SDS011;914;48.118;11.600;2022-12-08T15:54:49;19.13;;;13.07;;
1829;SDS011;914;48.118;11.600;2022-12-08T15:57:21;19.57;;;12.23;;
1829;SDS011;914;48.118;11.600;2022-12-08T15:59:49;17.43;;;12.93;;
1829;SDS011;914;48.118;11.600;2022-12-08T16:02:16;19.90;;;12.47;;
1829;SDS011;914;48.118;11.600;2022-12-08T16:04:44;19.53;;;13.50;;
1829;SDS011;914;48.118;11.600;2022-12-08T16:09:51;19.87;;;12.43;;
1829;SDS011;914;48.118;11.600;2022-12-08T16:12:21;20.53;;;13.03;;
1829;SDS011;914;48.118;11.600;2022-12-08T16:15:07;16.97;;;12.50;;
1829;SDS011;914;48.118;11.600;2022-12-08T16:17:34;22.60;;;12.73;;
1829;SDS011;914;48.118;11.600;2022-12-08T16:20:00;21.63;;;13.83;;
1829;SDS011;914;48.118;11.600;2022-12-08T16:22:28;20.40;;;13.07;;
1829;SDS011;914;48.118;11.600;2022-12-08T16:24:56;18.10;;;11.80;;
1829;SDS011;914;48.118;11.600;2022-12-08T16:27:23;21.10;;;13.33;;
1829;SDS011;914;48.118;11.600;2022-12-08T16:29:54;19.70;;;13.57;;
1829;SDS011;914;48.118;11.600;2022-12-08T16:32:21;19.90;;;13.77;;
1829;SDS011;914;48.118;11.600;2022-12-08T16:34:47;22.67;;;13.40;;
1829;SDS011;914;48.118;11.600;2022-12-08T16:37:14;21.20;;;13.87;;
1829;SDS011;914;48.118;11.600;2022-12-08T16:39:41;17.73;;;12.83;;
1829;SDS011;914;48.118;11.600;2022-12-08T16:42:13;18.07;;;11.63;;
1829;SDS011;914;48.118;11.600;2022-12-08T16:45:01;18.37;;;12.70;;
1829;SDS011;914;48.118;11.600;2022-12-08T16:47:28;19.10;;;13.23;;
1829;SDS011;914;48.118;11.600;2022-12-08T16:49:56;17.53;;;12.50;;
1829;SDS011;914;48.118;11.600;2022-12-08T16:52:43;20.10;;;13.80;;
1829;SDS011;914;48.118;11.600;2022-12-08T16:55:10;20.60;;;13.67;;
1829;SDS011;914;48.118;11.600;2022-12-08T16:57:37;21.40;;;14.20;;